createdAt,value
2023-04-13T00:01:13.000Z,276.46
2023-04-13T00:03:19.000Z,276.4
2023-04-13T00:04:46.000Z,276.46
2023-04-13T00:06:52.000Z,276.34
2023-04-13T00:08:18.000Z,276.27
2023-04-13T00:10:24.000Z,276.27
2023-04-13T00:11:51.000Z,276.34
2023-04-13T00:13:57.000Z,276.27
2023-04-13T00:16:49.000Z,276.15
2023-04-13T00:18:15.000Z,276.15
2023-04-13T00:20:21.000Z,276.15
2023-04-13T00:21:48.000Z,276.09
2023-04-13T00:23:54.000Z,275.96
2023-04-13T00:25:21.000Z,275.9
2023-04-13T00:27:27.000Z,275.96
2023-04-13T00:28:53.000Z,275.9
2023-04-13T00:31:00.000Z,275.96
2023-04-13T00:32:26.000Z,276.02
2023-04-13T00:34:32.000Z,275.96
2023-04-13T00:35:59.000Z,275.9
2023-04-13T00:38:05.000Z,275.84
2023-04-13T00:39:31.000Z,275.84
2023-04-13T00:41:37.000Z,275.84
2023-04-13T00:43:04.000Z,275.77
2023-04-13T00:45:10.000Z,275.71
2023-04-13T00:46:37.000Z,275.77
2023-04-13T00:48:43.000Z,275.77
2023-04-13T00:50:10.000Z,275.77
2023-04-13T00:52:16.000Z,275.71
2023-04-13T00:55:07.000Z,275.77
2023-04-13T00:56:33.000Z,275.77
2023-04-13T00:58:39.000Z,275.77
2023-04-13T01:00:06.000Z,275.71
2023-04-13T01:02:12.000Z,275.65
2023-04-13T01:03:39.000Z,275.77
2023-04-13T01:05:45.000Z,275.9
2023-04-13T01:07:11.000Z,275.9
2023-04-13T01:09:18.000Z,275.96
2023-04-13T01:10:44.000Z,276.02
2023-04-13T01:12:50.000Z,276.15
2023-04-13T01:14:17.000Z,276.15
2023-04-13T01:16:23.000Z,276.27
2023-04-13T01:17:49.000Z,276.27
2023-04-13T01:19:56.000Z,276.46
2023-04-13T01:21:22.000Z,276.59
2023-04-13T01:23:28.000Z,276.59
2023-04-13T01:24:55.000Z,276.71
2023-04-13T01:27:01.000Z,276.71
2023-04-13T01:28:28.000Z,276.65
2023-04-13T01:30:34.000Z,276.71
2023-04-13T01:33:25.000Z,276.59
2023-04-13T01:34:51.000Z,276.52
2023-04-13T01:36:57.000Z,276.52
2023-04-13T01:38:24.000Z,276.84
2023-04-13T01:40:30.000Z,276.96
2023-04-13T01:41:56.000Z,276.96
2023-04-13T01:44:02.000Z,276.96
2023-04-13T01:45:29.000Z,276.9
2023-04-13T01:47:35.000Z,276.9
2023-04-13T01:49:02.000Z,276.9
2023-04-13T01:51:08.000Z,276.9
2023-04-13T01:52:34.000Z,276.9
2023-04-13T01:54:40.000Z,277.09
2023-04-13T01:56:07.000Z,277.09
2023-04-13T01:58:13.000Z,277.09
2023-04-13T01:59:39.000Z,277.02
2023-04-13T02:01:45.000Z,277.09
2023-04-13T02:03:12.000Z,277.09
2023-04-13T02:05:18.000Z,277.21
2023-04-13T02:06:45.000Z,277.21
2023-04-13T02:08:51.000Z,277.4
2023-04-13T02:11:42.000Z,277.15
2023-04-13T02:13:09.000Z,277.21
2023-04-13T02:15:15.000Z,277.27
2023-04-13T02:16:42.000Z,277.34
2023-04-13T02:18:48.000Z,277.27
2023-04-13T02:20:14.000Z,277.27
2023-04-13T02:22:20.000Z,277.27
2023-04-13T02:23:47.000Z,277.4
2023-04-13T02:25:53.000Z,277.27
2023-04-13T02:27:19.000Z,277.34
2023-04-13T02:29:25.000Z,277.46
2023-04-13T02:30:52.000Z,277.4
2023-04-13T02:32:58.000Z,277.27
2023-04-13T02:34:25.000Z,277.21
2023-04-13T02:36:31.000Z,277.15
2023-04-13T02:37:57.000Z,277.15
2023-04-13T02:40:03.000Z,277.15
2023-04-13T02:41:30.000Z,277.21
2023-04-13T02:43:36.000Z,277.34
2023-04-13T02:45:02.000Z,277.27
2023-04-13T02:47:09.000Z,277.34
2023-04-13T02:50:00.000Z,277.21
2023-04-13T02:51:26.000Z,277.34
2023-04-13T02:53:32.000Z,277.4
2023-04-13T02:54:59.000Z,277.4
2023-04-13T02:57:05.000Z,277.34
2023-04-13T02:58:32.000Z,277.27
2023-04-13T03:00:38.000Z,277.27
2023-04-13T03:02:04.000Z,277.34
2023-04-13T03:04:10.000Z,277.4
2023-04-13T03:05:37.000Z,277.34
2023-04-13T03:07:43.000Z,277.46
2023-04-13T03:09:10.000Z,277.46
2023-04-13T03:11:16.000Z,277.46
2023-04-13T03:12:42.000Z,277.4
2023-04-13T03:14:48.000Z,277.4
2023-04-13T03:16:15.000Z,277.4
2023-04-13T03:18:21.000Z,277.4
2023-04-13T03:19:48.000Z,277.46
2023-04-13T03:21:54.000Z,277.65
2023-04-13T03:23:20.000Z,277.59
2023-04-13T03:25:27.000Z,277.46
2023-04-13T03:28:18.000Z,277.4
2023-04-13T03:29:44.000Z,277.46
2023-04-13T03:31:51.000Z,277.46
2023-04-13T03:33:17.000Z,277.52
2023-04-13T03:35:23.000Z,277.52
2023-04-13T03:36:50.000Z,277.46
2023-04-13T03:38:56.000Z,277.46
2023-04-13T03:40:22.000Z,277.46
2023-04-13T03:42:28.000Z,277.65
2023-04-13T03:43:55.000Z,277.71
2023-04-13T03:46:01.000Z,277.77
2023-04-13T03:47:28.000Z,277.71
2023-04-13T03:49:34.000Z,277.77
2023-04-13T03:51:01.000Z,277.77
2023-04-13T03:53:07.000Z,277.84
2023-04-13T03:54:33.000Z,277.84
2023-04-13T03:56:39.000Z,277.9
2023-04-13T03:58:06.000Z,277.96
2023-04-13T04:00:12.000Z,277.9
2023-04-13T04:01:38.000Z,277.84
2023-04-13T04:03:45.000Z,277.84
2023-04-13T04:06:36.000Z,277.84
2023-04-13T04:08:02.000Z,277.9
2023-04-13T04:10:08.000Z,277.84
2023-04-13T04:11:35.000Z,277.77
2023-04-13T04:13:41.000Z,277.77
2023-04-13T04:15:07.000Z,277.9
2023-04-13T04:17:13.000Z,277.96
2023-04-13T04:18:40.000Z,277.96
2023-04-13T04:20:46.000Z,277.9
2023-04-13T04:22:13.000Z,277.96
2023-04-13T04:24:19.000Z,277.84
2023-04-13T04:25:45.000Z,277.9
2023-04-13T04:27:51.000Z,277.9
2023-04-13T04:29:18.000Z,277.96
2023-04-13T04:31:24.000Z,278.02
2023-04-13T04:32:50.000Z,277.96
2023-04-13T04:34:56.000Z,277.96
2023-04-13T04:36:23.000Z,278.02
2023-04-13T04:38:29.000Z,278.15
2023-04-13T04:39:56.000Z,278.15
2023-04-13T04:42:02.000Z,278.21
2023-04-13T04:44:53.000Z,278.21
2023-04-13T04:46:19.000Z,278.27
2023-04-13T04:48:25.000Z,278.21
2023-04-13T04:49:52.000Z,278.09
2023-04-13T04:51:58.000Z,278.15
2023-04-13T04:53:24.000Z,278.21
2023-04-13T04:55:31.000Z,278.15
2023-04-13T04:56:57.000Z,278.15
2023-04-13T04:59:03.000Z,278.21
2023-04-13T05:00:30.000Z,278.21
2023-04-13T05:02:36.000Z,278.21
2023-04-13T05:04:03.000Z,278.21
2023-04-13T05:06:09.000Z,278.21
2023-04-13T05:07:35.000Z,278.21
2023-04-13T05:09:41.000Z,278.15
2023-04-13T05:11:08.000Z,278.27
2023-04-13T05:13:14.000Z,278.21
2023-04-13T05:14:40.000Z,278.21
2023-04-13T05:16:47.000Z,278.15
2023-04-13T05:18:13.000Z,278.27
2023-04-13T05:20:19.000Z,278.21
2023-04-13T05:23:10.000Z,278.21
2023-04-13T05:24:37.000Z,278.21
2023-04-13T05:26:43.000Z,278.15
2023-04-13T05:28:09.000Z,278.27
2023-04-13T05:30:15.000Z,278.27
2023-04-13T05:31:42.000Z,278.21
2023-04-13T05:33:48.000Z,278.21
2023-04-13T05:35:15.000Z,278.21
2023-04-13T05:37:21.000Z,278.27
2023-04-13T05:38:47.000Z,278.34
2023-04-13T05:40:53.000Z,278.27
2023-04-13T05:42:20.000Z,278.34
2023-04-13T05:44:26.000Z,278.34
2023-04-13T05:45:53.000Z,278.34
2023-04-13T05:47:59.000Z,278.27
2023-04-13T05:49:25.000Z,278.34
2023-04-13T05:51:31.000Z,278.4
2023-04-13T05:52:58.000Z,278.4
2023-04-13T05:55:04.000Z,278.46
2023-04-13T05:56:30.000Z,278.46
2023-04-13T05:58:37.000Z,278.4
2023-04-13T06:01:28.000Z,278.46
2023-04-13T06:02:54.000Z,278.46
2023-04-13T06:05:01.000Z,278.46
2023-04-13T06:06:27.000Z,278.52
2023-04-13T06:08:33.000Z,278.52
2023-04-13T06:10:00.000Z,278.71
2023-04-13T06:12:06.000Z,278.65
2023-04-13T06:13:33.000Z,278.59
2023-04-13T06:15:39.000Z,278.65
2023-04-13T06:17:05.000Z,278.65
2023-04-13T06:19:12.000Z,278.71
2023-04-13T06:20:38.000Z,278.71
2023-04-13T06:22:44.000Z,278.65
2023-04-13T06:24:11.000Z,278.65
2023-04-13T06:26:17.000Z,278.65
2023-04-13T06:27:43.000Z,278.71
2023-04-13T06:29:50.000Z,278.71
2023-04-13T06:31:16.000Z,278.77
2023-04-13T06:33:22.000Z,278.84
2023-04-13T06:34:49.000Z,278.9
2023-04-13T06:36:55.000Z,278.77
2023-04-13T06:39:47.000Z,278.84
2023-04-13T06:41:13.000Z,278.84
2023-04-13T06:43:19.000Z,278.77
2023-04-13T06:44:54.000Z,278.77
2023-04-13T06:47:00.000Z,278.84
2023-04-13T06:48:27.000Z,278.84
2023-04-13T06:50:33.000Z,278.77
2023-04-13T06:51:59.000Z,278.77
2023-04-13T06:54:05.000Z,278.71
2023-04-13T06:55:32.000Z,278.71
2023-04-13T06:57:38.000Z,278.71
2023-04-13T06:59:04.000Z,278.77
2023-04-13T07:01:11.000Z,278.77
2023-04-13T07:02:38.000Z,278.77
2023-04-13T07:04:44.000Z,278.77
2023-04-13T07:06:11.000Z,278.77
2023-04-13T07:08:17.000Z,278.77
2023-04-13T07:09:44.000Z,278.77
2023-04-13T07:11:50.000Z,278.77
2023-04-13T07:13:16.000Z,278.77
2023-04-13T07:15:22.000Z,278.77
2023-04-13T07:18:13.000Z,278.84
2023-04-13T07:19:40.000Z,278.84
2023-04-13T07:21:46.000Z,278.84
2023-04-13T07:23:13.000Z,278.84
2023-04-13T07:25:19.000Z,278.96
2023-04-13T07:26:45.000Z,278.96
2023-04-13T07:28:51.000Z,279.02
2023-04-13T07:30:18.000Z,279.02
2023-04-13T07:32:24.000Z,279.09
2023-04-13T07:33:55.000Z,279.15
2023-04-13T07:36:02.000Z,279.15
2023-04-13T07:37:28.000Z,279.21
2023-04-13T07:39:34.000Z,279.21
2023-04-13T07:41:01.000Z,279.21
2023-04-13T07:43:07.000Z,279.27
2023-04-13T07:44:34.000Z,279.34
2023-04-13T07:46:40.000Z,279.4
2023-04-13T07:48:06.000Z,279.46
2023-04-13T07:50:13.000Z,279.46
2023-04-13T07:51:39.000Z,279.52
2023-04-13T07:53:45.000Z,279.52
2023-04-13T07:56:37.000Z,279.65
2023-04-13T07:58:03.000Z,279.65
2023-04-13T08:00:09.000Z,279.65
2023-04-13T08:01:36.000Z,279.59
2023-04-13T08:03:42.000Z,279.52
2023-04-13T08:05:09.000Z,279.52
2023-04-13T08:07:15.000Z,279.46
2023-04-13T08:08:41.000Z,279.46
2023-04-13T08:10:48.000Z,279.4
2023-04-13T08:12:14.000Z,279.4
2023-04-13T08:14:20.000Z,279.46
2023-04-13T08:15:47.000Z,279.46
2023-04-13T08:17:53.000Z,279.52
2023-04-13T08:19:19.000Z,279.52
2023-04-13T08:21:26.000Z,279.65
2023-04-13T08:22:52.000Z,279.71
2023-04-13T08:24:58.000Z,279.77
2023-04-13T08:26:25.000Z,279.9
2023-04-13T08:28:31.000Z,280.02
2023-04-13T08:29:57.000Z,280.02
2023-04-13T08:32:04.000Z,280.15
2023-04-13T08:34:55.000Z,280.4
2023-04-13T08:36:21.000Z,280.52
2023-04-13T08:38:28.000Z,280.59
2023-04-13T08:39:54.000Z,280.77
2023-04-13T08:42:00.000Z,280.77
2023-04-13T08:43:27.000Z,280.84
2023-04-13T08:45:33.000Z,281.02
2023-04-13T08:47:00.000Z,281.02
2023-04-13T08:49:06.000Z,281.09
2023-04-13T08:50:32.000Z,281.09
2023-04-13T08:52:39.000Z,280.96
2023-04-13T08:54:05.000Z,281.09
2023-04-13T08:56:11.000Z,281.27
2023-04-13T08:57:38.000Z,281.21
2023-04-13T08:59:44.000Z,281.34
2023-04-13T09:01:10.000Z,281.15
2023-04-13T09:03:17.000Z,281.27
2023-04-13T09:04:43.000Z,281.15
2023-04-13T09:06:50.000Z,281.09
2023-04-13T09:08:16.000Z,280.96
2023-04-13T09:10:22.000Z,281.27
2023-04-13T09:13:13.000Z,281.34
2023-04-13T09:14:40.000Z,281.65
2023-04-13T09:16:46.000Z,281.77
2023-04-13T09:18:13.000Z,281.77
2023-04-13T09:20:19.000Z,281.65
2023-04-13T09:21:45.000Z,281.34
2023-04-13T09:23:51.000Z,281.21
2023-04-13T09:25:18.000Z,281.34
2023-04-13T09:27:24.000Z,281.4
2023-04-13T09:28:51.000Z,281.34
2023-04-13T09:30:59.000Z,281.27
2023-04-13T09:32:26.000Z,281.09
2023-04-13T09:34:32.000Z,281.27
2023-04-13T09:35:59.000Z,281.4
2023-04-13T09:38:05.000Z,281.59
2023-04-13T09:39:31.000Z,282.02
2023-04-13T09:41:38.000Z,282.09
2023-04-13T09:43:04.000Z,282.21
2023-04-13T09:45:10.000Z,282.4
2023-04-13T09:46:37.000Z,282.46
2023-04-13T09:48:43.000Z,281.96
2023-04-13T09:51:34.000Z,282.09
2023-04-13T09:53:00.000Z,282.15
2023-04-13T09:55:07.000Z,282.34
2023-04-13T09:56:33.000Z,282.46
2023-04-13T09:58:39.000Z,281.84
2023-04-13T10:00:06.000Z,281.9
2023-04-13T10:02:12.000Z,282.34
2023-04-13T10:03:38.000Z,282.59
2023-04-13T10:05:45.000Z,282.27
2023-04-13T10:07:23.000Z,282.46
2023-04-13T10:09:29.000Z,282.71
2023-04-13T10:10:56.000Z,282.4
2023-04-13T10:13:02.000Z,282.4
2023-04-13T10:14:29.000Z,282.52
2023-04-13T10:16:35.000Z,282.65
2023-04-13T10:18:01.000Z,282.46
2023-04-13T10:20:07.000Z,282.59
2023-04-13T10:21:34.000Z,282.15
2023-04-13T10:23:40.000Z,282.15
2023-04-13T10:25:07.000Z,282.27
2023-04-13T10:27:20.000Z,282.46
2023-04-13T10:30:11.000Z,282.65
2023-04-13T10:31:38.000Z,282.4
2023-04-13T10:33:44.000Z,282.65
2023-04-13T10:35:10.000Z,282.65
2023-04-13T10:37:17.000Z,282.52
2023-04-13T10:38:43.000Z,282.59
2023-04-13T10:40:49.000Z,282.59
2023-04-13T10:42:16.000Z,282.52
2023-04-13T10:44:22.000Z,282.4
2023-04-13T10:45:48.000Z,282.4
2023-04-13T10:47:55.000Z,282.15
2023-04-13T10:49:21.000Z,282.21
2023-04-13T10:51:27.000Z,282.4
2023-04-13T10:52:54.000Z,282.27
2023-04-13T10:55:00.000Z,282.4
2023-04-13T10:56:27.000Z,282.34
2023-04-13T10:58:33.000Z,282.59
2023-04-13T10:59:59.000Z,282.71
2023-04-13T11:02:05.000Z,282.59
2023-04-13T11:03:32.000Z,282.4
2023-04-13T11:05:38.000Z,282.59
2023-04-13T11:08:29.000Z,282.65
2023-04-13T11:09:56.000Z,282.65
2023-04-13T11:12:07.000Z,282.77
2023-04-13T11:13:33.000Z,282.84
2023-04-13T11:15:39.000Z,282.96
2023-04-13T11:17:06.000Z,283.09
2023-04-13T11:19:12.000Z,283.15
2023-04-13T11:20:39.000Z,283.4
2023-04-13T11:22:45.000Z,283.21
2023-04-13T11:24:12.000Z,283.34
2023-04-13T11:26:18.000Z,283.15
2023-04-13T11:27:44.000Z,283.15
2023-04-13T11:29:51.000Z,283.09
2023-04-13T11:31:17.000Z,283.09
2023-04-13T11:33:23.000Z,283.27
2023-04-13T11:34:50.000Z,283.4
2023-04-13T11:36:56.000Z,283.34
2023-04-13T11:38:22.000Z,283.27
2023-04-13T11:40:28.000Z,283.4
2023-04-13T11:41:55.000Z,283.52
2023-04-13T11:44:01.000Z,283.59
2023-04-13T11:46:52.000Z,283.52
2023-04-13T11:48:19.000Z,283.52
2023-04-13T11:50:25.000Z,283.65
2023-04-13T11:51:52.000Z,283.59
2023-04-13T11:53:58.000Z,283.4
2023-04-13T11:55:24.000Z,283.34
2023-04-13T11:57:30.000Z,283.59
2023-04-13T11:58:57.000Z,283.71
2023-04-13T12:01:03.000Z,283.65
2023-04-13T12:02:38.000Z,283.52
2023-04-13T12:05:05.000Z,283.4
2023-04-13T12:06:32.000Z,283.34
2023-04-13T12:08:39.000Z,283.15
2023-04-13T12:10:07.000Z,283.09
2023-04-13T12:13:46.000Z,282.84
2023-04-13T12:17:40.000Z,282.71
2023-04-13T12:19:53.000Z,282.77
2023-04-13T12:21:22.000Z,282.77
2023-04-13T12:23:30.000Z,282.77
2023-04-13T12:26:22.000Z,282.9
2023-04-13T12:28:34.000Z,283.46
2023-04-13T12:30:40.000Z,283.9
2023-04-13T12:32:07.000Z,283.9
2023-04-13T12:34:13.000Z,283.77
2023-04-13T12:35:39.000Z,283.84
2023-04-13T12:37:45.000Z,283.71
2023-04-13T12:39:12.000Z,283.52
2023-04-13T12:41:18.000Z,283.46
2023-04-13T12:42:44.000Z,283.21
2023-04-13T12:44:51.000Z,282.59
2023-04-13T12:46:17.000Z,282.4
2023-04-13T12:48:23.000Z,281.4
2023-04-13T12:49:50.000Z,281.34
2023-04-13T12:51:56.000Z,281.4
2023-04-13T12:53:23.000Z,281.52
2023-04-13T12:55:29.000Z,281.46
2023-04-13T12:56:55.000Z,281.52
2023-04-13T12:59:01.000Z,281.65
2023-04-13T13:00:28.000Z,281.77
2023-04-13T13:02:34.000Z,282.34
2023-04-13T13:05:26.000Z,282.77
2023-04-13T13:06:52.000Z,282.77
2023-04-13T13:08:58.000Z,282.59
2023-04-13T13:10:25.000Z,282.46
2023-04-13T13:12:34.000Z,282.34
2023-04-13T13:14:00.000Z,282.46
2023-04-13T13:16:07.000Z,282.59
2023-04-13T13:17:33.000Z,282.52
2023-04-13T13:19:40.000Z,282.52
2023-04-13T13:21:06.000Z,282.71
2023-04-13T13:23:12.000Z,282.96
2023-04-13T13:24:39.000Z,283.09
2023-04-13T13:28:17.000Z,283.09
2023-04-13T13:30:23.000Z,282.84
2023-04-13T13:31:50.000Z,282.9
2023-04-13T13:33:56.000Z,282.9
2023-04-13T13:35:23.000Z,282.9
2023-04-13T13:37:29.000Z,282.84
2023-04-13T13:38:55.000Z,282.84
2023-04-13T13:41:02.000Z,282.71
2023-04-13T13:43:53.000Z,282.65
2023-04-13T13:45:20.000Z,282.59
2023-04-13T13:47:26.000Z,282.59
2023-04-13T13:48:53.000Z,282.27
2023-04-13T13:50:59.000Z,281.9
2023-04-13T13:52:25.000Z,281.65
2023-04-13T13:54:31.000Z,281.4
2023-04-13T13:55:58.000Z,281.34
2023-04-13T13:58:04.000Z,281.4
2023-04-13T13:59:30.000Z,281.34
2023-04-13T14:01:36.000Z,281.4
2023-04-13T14:03:03.000Z,281.4
2023-04-13T14:05:09.000Z,281.34
2023-04-13T14:06:36.000Z,281.27
2023-04-13T14:08:42.000Z,281.09
2023-04-13T14:10:08.000Z,281.02
2023-04-13T14:12:15.000Z,281.02
2023-04-13T14:13:41.000Z,281.15
2023-04-13T14:15:47.000Z,281.27
2023-04-13T14:17:14.000Z,281.15
2023-04-13T14:19:20.000Z,280.96
2023-04-13T14:22:11.000Z,280.84
2023-04-13T14:23:38.000Z,280.77
2023-04-13T14:25:44.000Z,280.9
2023-04-13T14:27:10.000Z,281.09
2023-04-13T14:29:16.000Z,281.21
2023-04-13T14:30:43.000Z,281.21
2023-04-13T14:32:49.000Z,281.21
2023-04-13T14:34:16.000Z,281.21
2023-04-13T14:36:22.000Z,281.21
2023-04-13T14:37:48.000Z,281.09
2023-04-13T14:39:54.000Z,280.84
2023-04-13T14:41:21.000Z,280.84
2023-04-13T14:43:27.000Z,280.71
2023-04-13T14:44:54.000Z,280.71
2023-04-13T14:47:00.000Z,280.59
2023-04-13T14:48:28.000Z,280.65
2023-04-13T14:50:34.000Z,280.65
2023-04-13T14:52:01.000Z,280.59
2023-04-13T14:54:07.000Z,280.52
2023-04-13T14:55:33.000Z,280.52
2023-04-13T14:57:40.000Z,280.59
2023-04-13T15:00:31.000Z,280.52
2023-04-13T15:01:57.000Z,280.52
2023-04-13T15:04:04.000Z,280.59
2023-04-13T15:05:30.000Z,280.52
2023-04-13T15:07:37.000Z,280.46
2023-04-13T15:09:03.000Z,280.52
2023-04-13T15:11:09.000Z,280.59
2023-04-13T15:12:36.000Z,280.59
2023-04-13T15:14:42.000Z,280.65
2023-04-13T15:16:09.000Z,280.71
2023-04-13T15:18:15.000Z,280.77
2023-04-13T15:19:41.000Z,280.96
2023-04-13T15:21:47.000Z,281.09
2023-04-13T15:23:14.000Z,281.21
2023-04-13T15:25:23.000Z,281.52
2023-04-13T15:26:49.000Z,281.52
2023-04-13T15:28:55.000Z,281.71
2023-04-13T15:30:23.000Z,281.9
2023-04-13T15:32:29.000Z,282.02
2023-04-13T15:33:55.000Z,282.09
2023-04-13T15:36:01.000Z,282.09
2023-04-13T15:38:53.000Z,282.09
2023-04-13T15:40:19.000Z,282.09
2023-04-13T15:42:26.000Z,282.09
2023-04-13T15:43:52.000Z,282.21
2023-04-13T15:45:59.000Z,282.21
2023-04-13T15:47:25.000Z,282.34
2023-04-13T15:49:31.000Z,282.34
2023-04-13T15:50:58.000Z,282.27
2023-04-13T15:53:04.000Z,282.34
2023-04-13T15:54:31.000Z,282.34
2023-04-13T15:56:37.000Z,282.34
2023-04-13T15:58:03.000Z,282.34
2023-04-13T16:00:09.000Z,282.34
2023-04-13T16:01:36.000Z,282.4
2023-04-13T16:03:42.000Z,282.46
2023-04-13T16:05:09.000Z,282.46
2023-04-13T16:07:15.000Z,282.52
2023-04-13T16:08:41.000Z,282.59
2023-04-13T16:10:47.000Z,282.46
2023-04-13T16:12:14.000Z,282.46
2023-04-13T16:14:20.000Z,282.46
2023-04-13T16:17:11.000Z,282.46
2023-04-13T16:18:37.000Z,282.46
2023-04-13T16:20:44.000Z,282.4
2023-04-13T16:22:10.000Z,282.4
2023-04-13T16:24:16.000Z,282.34
2023-04-13T16:25:43.000Z,282.34
2023-04-13T16:27:49.000Z,282.34
2023-04-13T16:29:16.000Z,282.4
2023-04-13T16:31:23.000Z,282.34
2023-04-13T16:32:49.000Z,282.34
2023-04-13T16:34:55.000Z,282.27
2023-04-13T16:36:22.000Z,282.27
2023-04-13T16:38:28.000Z,282.15
2023-04-13T16:39:55.000Z,282.15
2023-04-13T16:42:01.000Z,282.09
2023-04-13T16:43:27.000Z,282.09
2023-04-13T16:45:33.000Z,282.02
2023-04-13T16:47:00.000Z,281.96
2023-04-13T16:49:06.000Z,282.02
2023-04-13T16:50:33.000Z,281.9
2023-04-13T16:52:39.000Z,281.9
2023-04-13T16:55:30.000Z,281.84
2023-04-13T16:56:56.000Z,281.84
2023-04-13T16:59:03.000Z,281.84
2023-04-13T17:00:29.000Z,281.84
2023-04-13T17:02:35.000Z,281.84
2023-04-13T17:04:02.000Z,281.84
2023-04-13T17:06:08.000Z,281.84
2023-04-13T17:07:35.000Z,281.77
2023-04-13T17:09:41.000Z,281.71
2023-04-13T17:11:08.000Z,281.59
2023-04-13T17:13:14.000Z,281.52
2023-04-13T17:14:40.000Z,281.46
2023-04-13T17:16:47.000Z,281.52
2023-04-13T17:18:14.000Z,281.52
2023-04-13T17:20:20.000Z,281.46
2023-04-13T17:21:46.000Z,281.46
2023-04-13T17:23:53.000Z,281.4
2023-04-13T17:25:19.000Z,281.34
2023-04-13T17:27:25.000Z,281.34
2023-04-13T17:28:52.000Z,281.27
2023-04-13T17:30:58.000Z,281.21
2023-04-13T17:33:49.000Z,281.15
2023-04-13T17:35:16.000Z,281.15
2023-04-13T17:37:22.000Z,281.09
2023-04-13T17:38:48.000Z,281.09
2023-04-13T17:40:55.000Z,281.09
2023-04-13T17:42:21.000Z,281.02
2023-04-13T17:44:27.000Z,281.02
2023-04-13T17:45:54.000Z,281.02
2023-04-13T17:48:00.000Z,281.02
2023-04-13T17:49:26.000Z,280.96
2023-04-13T17:51:33.000Z,280.84
2023-04-13T17:52:59.000Z,280.84
2023-04-13T17:55:05.000Z,280.71
2023-04-13T17:56:32.000Z,280.65
2023-04-13T17:58:38.000Z,280.46
2023-04-13T18:00:04.000Z,280.27
2023-04-13T18:02:10.000Z,280.09
2023-04-13T18:03:37.000Z,280.02
2023-04-13T18:05:44.000Z,280.02
2023-04-13T18:07:10.000Z,279.96
2023-04-13T18:09:16.000Z,279.84
2023-04-13T18:12:07.000Z,279.71
2023-04-13T18:13:34.000Z,279.65
2023-04-13T18:15:40.000Z,279.52
2023-04-13T18:17:06.000Z,279.46
2023-04-13T18:19:12.000Z,279.4
2023-04-13T18:20:39.000Z,279.4
2023-04-13T18:22:45.000Z,279.27
2023-04-13T18:24:12.000Z,279.21
2023-04-13T18:26:18.000Z,279.09
2023-04-13T18:27:44.000Z,278.96
2023-04-13T18:29:50.000Z,278.9
2023-04-13T18:31:17.000Z,278.84
2023-04-13T18:33:23.000Z,278.77
2023-04-13T18:34:50.000Z,278.71
2023-04-13T18:36:56.000Z,278.65
2023-04-13T18:38:22.000Z,278.59
2023-04-13T18:40:28.000Z,278.46
2023-04-13T18:41:55.000Z,278.4
2023-04-13T18:44:01.000Z,278.4
2023-04-13T18:45:28.000Z,278.34
2023-04-13T18:47:34.000Z,278.27
2023-04-13T18:50:25.000Z,278.21
2023-04-13T18:51:51.000Z,278.15
2023-04-13T18:53:58.000Z,278.09
2023-04-13T18:55:25.000Z,278.02
2023-04-13T18:57:31.000Z,277.96
2023-04-13T18:58:57.000Z,277.96
2023-04-13T19:01:03.000Z,277.96
2023-04-13T19:02:30.000Z,277.84
2023-04-13T19:04:36.000Z,277.71
2023-04-13T19:06:03.000Z,277.71
2023-04-13T19:08:09.000Z,277.65
2023-04-13T19:09:36.000Z,277.65
2023-04-13T19:11:42.000Z,277.59
2023-04-13T19:13:08.000Z,277.52
2023-04-13T19:15:14.000Z,277.52
2023-04-13T19:16:41.000Z,277.52
2023-04-13T19:18:47.000Z,277.52
2023-04-13T19:20:13.000Z,277.52
2023-04-13T19:22:20.000Z,277.46
2023-04-13T19:23:46.000Z,277.46
2023-04-13T19:25:52.000Z,277.4
2023-04-13T19:28:43.000Z,277.27
2023-04-13T19:30:10.000Z,277.27
2023-04-13T19:32:16.000Z,277.21
2023-04-13T19:33:43.000Z,277.21
2023-04-13T19:35:49.000Z,277.21
2023-04-13T19:37:15.000Z,277.21
2023-04-13T19:39:21.000Z,277.15
2023-04-13T19:40:48.000Z,277.15
2023-04-13T19:42:54.000Z,277.15
2023-04-13T19:44:20.000Z,277.09
2023-04-13T19:46:27.000Z,277.09
2023-04-13T19:47:53.000Z,277.02
2023-04-13T19:49:59.000Z,276.96
2023-04-13T19:51:26.000Z,276.96
2023-04-13T19:53:32.000Z,276.9
2023-04-13T19:55:02.000Z,276.96
2023-04-13T19:57:08.000Z,276.96
2023-04-13T19:58:34.000Z,276.96
2023-04-13T20:00:41.000Z,277.02
2023-04-13T20:02:07.000Z,276.96
2023-04-13T20:04:13.000Z,276.9
2023-04-13T20:07:04.000Z,276.77
2023-04-13T20:08:31.000Z,276.71
2023-04-13T20:10:37.000Z,276.71
2023-04-13T20:12:03.000Z,276.65
2023-04-13T20:14:09.000Z,276.59
2023-04-13T20:15:36.000Z,276.52
2023-04-13T20:17:42.000Z,276.59
2023-04-13T20:19:09.000Z,276.52
2023-04-13T20:21:15.000Z,276.46
2023-04-13T20:22:41.000Z,276.4
2023-04-13T20:24:48.000Z,276.4
2023-04-13T20:26:14.000Z,276.34
2023-04-13T20:28:20.000Z,276.4
2023-04-13T20:29:47.000Z,276.34
2023-04-13T20:31:53.000Z,276.27
2023-04-13T20:33:19.000Z,276.27
2023-04-13T20:35:26.000Z,276.21
2023-04-13T20:36:52.000Z,276.15
2023-04-13T20:38:58.000Z,276.21
2023-04-13T20:40:25.000Z,276.34
2023-04-13T20:42:31.000Z,276.34
2023-04-13T20:45:22.000Z,276.15
2023-04-13T20:46:49.000Z,276.21
2023-04-13T20:48:55.000Z,276.15
2023-04-13T20:50:22.000Z,276.09
2023-04-13T20:52:31.000Z,276.02
2023-04-13T20:53:57.000Z,275.96
2023-04-13T20:56:04.000Z,275.84
2023-04-13T20:57:30.000Z,275.84
2023-04-13T20:59:36.000Z,275.84
2023-04-13T21:01:03.000Z,275.77
2023-04-13T21:03:09.000Z,275.9
2023-04-13T21:04:36.000Z,275.96
2023-04-13T21:06:42.000Z,275.96
2023-04-13T21:08:09.000Z,276.02
2023-04-13T21:10:15.000Z,275.9
2023-04-13T21:11:41.000Z,275.9
2023-04-13T21:13:47.000Z,275.84
2023-04-13T21:15:14.000Z,275.84
2023-04-13T21:17:20.000Z,275.71
2023-04-13T21:18:46.000Z,275.77
2023-04-13T21:20:53.000Z,275.77
2023-04-13T21:23:44.000Z,275.9
2023-04-13T21:25:10.000Z,275.84
2023-04-13T21:27:16.000Z,275.9
2023-04-13T21:28:43.000Z,275.9
2023-04-13T21:30:49.000Z,275.96
2023-04-13T21:32:15.000Z,276.09
2023-04-13T21:34:22.000Z,276.15
2023-04-13T21:35:48.000Z,276.09
2023-04-13T21:37:54.000Z,276.02
2023-04-13T21:39:21.000Z,275.96
2023-04-13T21:41:27.000Z,276.09
2023-04-13T21:42:54.000Z,276.09
2023-04-13T21:45:00.000Z,275.96
2023-04-13T21:46:26.000Z,275.96
2023-04-13T21:48:33.000Z,275.96
2023-04-13T21:49:59.000Z,275.9
2023-04-13T21:52:05.000Z,275.84
2023-04-13T21:53:32.000Z,275.84
2023-04-13T21:55:38.000Z,275.77
2023-04-13T21:57:04.000Z,275.77
2023-04-13T21:59:10.000Z,275.77
2023-04-13T22:02:02.000Z,275.77
2023-04-13T22:03:28.000Z,275.77
2023-04-13T22:05:35.000Z,275.77
2023-04-13T22:07:01.000Z,275.77
2023-04-13T22:09:08.000Z,275.9
2023-04-13T22:10:34.000Z,275.9
2023-04-13T22:12:40.000Z,275.9
2023-04-13T22:14:07.000Z,275.9
2023-04-13T22:16:13.000Z,275.9
2023-04-13T22:17:39.000Z,275.9
2023-04-13T22:19:46.000Z,275.84
2023-04-13T22:21:12.000Z,275.9
2023-04-13T22:23:18.000Z,275.9
2023-04-13T22:24:45.000Z,275.9
2023-04-13T22:26:51.000Z,275.9
2023-04-13T22:28:17.000Z,275.9
2023-04-13T22:30:23.000Z,275.9
2023-04-13T22:31:50.000Z,275.96
2023-04-13T22:33:56.000Z,275.96
2023-04-13T22:35:23.000Z,276.02
2023-04-13T22:37:29.000Z,275.96
2023-04-13T22:40:20.000Z,275.96
2023-04-13T22:41:47.000Z,276.02
2023-04-13T22:43:53.000Z,276.02
2023-04-13T22:45:19.000Z,276.09
2023-04-13T22:47:25.000Z,276.09
2023-04-13T22:48:52.000Z,276.09
2023-04-13T22:50:58.000Z,276.09
2023-04-13T22:52:25.000Z,276.02
2023-04-13T22:54:31.000Z,275.96
2023-04-13T22:55:57.000Z,275.96
2023-04-13T22:58:04.000Z,275.96
2023-04-13T22:59:30.000Z,275.96